Terminal Aerodrome Forecast
Issued by NWS

Home | Current Version | Previous Version | Graphics & Text | Print | Product List | Glossary On
Versions: 1 2 3 4 5 6 7 8 9 10 11 12 13 14
000
FTUS43 KPAH 011720
TAFCGI
TAF
KCGI 011720Z 0118/0218 26009KT P6SM -SHRA BKN080
     FM020000 18004KT 4SM SHRA BR VCTS SCT025CB BKN050
     FM021200 19004KT P6SM SCT010 BKN025 PROB30 0212/0218 -SHRA=

USA.gov is the U.S. government's official web portal to all federal, state and local government web resources and services.